Skip Navigation Links Skip Navigation Links

Current Weather

Karaganda, Kazakhstan

For information only: do not use for flight planning or navigation.
Latest weather
Observation time Saturday, July 11, 2020 6:30 AM +06
Local time Saturday, July 11, 2020 6:59 AM +06
Flight conditions Visual Meteorological Conditions
Winds
Wind direction East-Northeast (70°)
Winds variable from 40° to 120°
Wind speed 4 mph
Visibility 6.2 mi.
Sky condition
Ceiling unlimited
Sky clear
Temperature 57°F
Dewpoint 57°F
Altimeter 29.83 in.Hg
Precipitation
QF 5:51 PM
Derived measurements
Relative humidity 100%
Density altitude 213 ft.
Remarks
Ceiling and visibility OK.
No significant changes expected in the next two hours.
METAR UAKK 110030Z 07002MPS 040V120 CAVOK 14/14 Q1010 R05/1///65 NOSIG RMK QFE711/0948

Settings

Location code

InnerDrive.Weather 4.0.6770.0 Release CLR 4.0.30319.42000
Copyright ©2018 Inner Drive Technology. All rights reserved. Portions Copyright ©1986-2018 David Braverman.

Find weather

Site navigation


Skip Navigation Links

Place info

Page info

PayPal - The safer, easier way to pay online!

Return home.

Copyright ©2020 Inner Drive Technology. Purveyors of fine, hand-crafted computer software. Page printed 2020-07-11T00:59:11 UTC.